createdAt,value
2018-06-28T00:00:14.275Z,10.50
2018-06-28T00:01:18.676Z,9.25
2018-06-28T00:02:21.899Z,9.75
2018-06-28T00:03:24.679Z,10.00
2018-06-28T00:04:27.925Z,10.50
2018-06-28T00:05:30.721Z,9.75
2018-06-28T00:06:34.664Z,9.00
2018-06-28T00:07:37.444Z,9.00
2018-06-28T00:08:40.298Z,9.50
2018-06-28T00:09:43.646Z,10.50
2018-06-28T00:10:47.058Z,9.75
2018-06-28T00:11:50.839Z,9.50
2018-06-28T00:12:53.855Z,8.00
2018-06-28T00:13:56.704Z,8.00
2018-06-28T00:14:59.486Z,8.25
2018-06-28T00:16:02.265Z,7.50
2018-06-28T00:17:06.591Z,7.00
2018-06-28T00:18:09.413Z,9.25
2018-06-28T00:19:12.238Z,9.75
2018-06-28T00:20:15.832Z,8.25
2018-06-28T00:21:18.653Z,8.50
2018-06-28T00:22:23.631Z,9.50
2018-06-28T00:23:27.489Z,9.25
2018-06-28T00:24:30.311Z,8.75
2018-06-28T00:25:33.079Z,9.00
2018-06-28T00:26:36.421Z,8.75
2018-06-28T00:27:39.833Z,10.75
2018-06-28T00:28:42.681Z,12.75
2018-06-28T00:29:45.999Z,9.50
2018-06-28T00:30:48.758Z,9.75
2018-06-28T00:31:51.566Z,10.25
2018-06-28T00:32:54.366Z,11.75
2018-06-28T00:33:57.737Z,11.75
2018-06-28T00:35:00.550Z,9.50
2018-06-28T00:36:03.842Z,9.25
2018-06-28T00:37:06.633Z,12.00
2018-06-28T00:38:10.827Z,11.50
2018-06-28T00:39:14.443Z,9.00
2018-06-28T00:40:18.249Z,8.50
2018-06-28T00:41:21.061Z,11.25
2018-06-28T00:42:24.347Z,9.00
2018-06-28T00:43:27.293Z,11.25
2018-06-28T00:44:30.097Z,9.00
2018-06-28T00:45:32.953Z,9.25
2018-06-28T00:46:35.731Z,9.00
2018-06-28T00:47:38.518Z,9.00
2018-06-28T00:48:42.579Z,10.00
2018-06-28T00:49:45.401Z,9.25
2018-06-28T00:50:48.214Z,8.00
2018-06-28T00:51:52.565Z,9.50
2018-06-28T00:52:55.359Z,9.00
2018-06-28T00:53:58.161Z,9.00
2018-06-28T00:55:01.467Z,8.00
2018-06-28T00:56:04.426Z,9.00
2018-06-28T00:57:07.203Z,10.75
2018-06-28T00:58:10.030Z,8.75
2018-06-28T00:59:13.647Z,11.25
2018-06-28T01:00:16.542Z,9.00
2018-06-28T01:01:19.755Z,12.00
2018-06-28T01:02:22.522Z,9.25
2018-06-28T01:03:25.273Z,13.00
2018-06-28T01:04:28.049Z,12.25
2018-06-28T01:05:30.819Z,12.75
2018-06-28T01:06:33.576Z,11.75
2018-06-28T01:07:36.767Z,12.25
2018-06-28T01:08:39.567Z,11.00
2018-06-28T01:09:42.325Z,10.00
2018-06-28T01:10:45.729Z,11.00
2018-06-28T01:11:48.508Z,10.50
2018-06-28T01:12:51.277Z,9.50
2018-06-28T01:13:54.381Z,9.00
2018-06-28T01:14:57.190Z,9.25
2018-06-28T01:15:59.954Z,9.00
2018-06-28T01:17:02.740Z,11.00
2018-06-28T01:18:05.593Z,10.00
2018-06-28T01:19:08.826Z,10.00
2018-06-28T01:20:12.059Z,10.50
2018-06-28T01:21:18.505Z,9.50
2018-06-28T01:22:21.418Z,8.00
2018-06-28T01:23:24.196Z,11.25
2018-06-28T01:24:27.523Z,8.25
2018-06-28T01:25:39.593Z,9.50
2018-06-28T01:26:42.390Z,11.00
2018-06-28T01:27:45.210Z,8.75
2018-06-28T01:28:47.966Z,8.00
2018-06-28T01:29:50.728Z,8.75
2018-06-28T01:30:53.628Z,9.00
2018-06-28T01:31:56.785Z,8.00
2018-06-28T01:32:59.570Z,9.00
2018-06-28T01:34:02.362Z,10.50
2018-06-28T01:35:05.211Z,10.50
2018-06-28T01:36:07.992Z,9.50
2018-06-28T01:37:10.760Z,8.50
2018-06-28T01:38:14.037Z,10.50
2018-06-28T01:39:16.811Z,11.50
2018-06-28T01:40:19.700Z,10.00
2018-06-28T01:41:22.525Z,8.00
2018-06-28T01:42:25.311Z,11.00
2018-06-28T01:43:28.083Z,9.00
2018-06-28T01:44:31.224Z,9.50
2018-06-28T01:45:33.996Z,9.00
2018-06-28T01:46:36.773Z,8.00
2018-06-28T01:47:42.157Z,11.25
2018-06-28T01:48:45.047Z,8.75
2018-06-28T01:49:47.825Z,9.00
2018-06-28T01:50:51.004Z,12.00
2018-06-28T01:51:53.800Z,11.00
2018-06-28T01:52:56.626Z,9.50
2018-06-28T01:53:59.378Z,12.50
2018-06-28T01:55:02.239Z,10.00
2018-06-28T01:56:05.114Z,11.00
2018-06-28T01:57:08.380Z,10.00
2018-06-28T01:58:11.170Z,9.00
2018-06-28T01:59:15.441Z,11.00
2018-06-28T02:00:18.234Z,9.00
2018-06-28T02:01:21.029Z,9.00
2018-06-28T02:02:23.825Z,11.00
2018-06-28T02:03:27.051Z,11.50
2018-06-28T02:04:29.869Z,11.00
2018-06-28T02:05:32.689Z,8.25
2018-06-28T02:06:35.491Z,9.00
2018-06-28T02:07:38.252Z,8.00
2018-06-28T02:08:41.052Z,9.00
2018-06-28T02:09:44.284Z,9.00
2018-06-28T02:10:47.098Z,10.00
2018-06-28T02:11:49.895Z,8.50
2018-06-28T02:12:52.686Z,11.00
2018-06-28T02:13:55.458Z,8.25
2018-06-28T02:14:58.269Z,9.00
2018-06-28T02:16:01.526Z,11.00
2018-06-28T02:17:04.532Z,9.00
2018-06-28T02:18:07.623Z,12.00
2018-06-28T02:19:10.437Z,9.00
2018-06-28T02:20:13.267Z,9.00
2018-06-28T02:21:16.078Z,10.00
2018-06-28T02:22:19.173Z,8.75
2018-06-28T02:23:21.963Z,10.50
2018-06-28T02:24:24.753Z,10.00
2018-06-28T02:25:27.709Z,11.00
2018-06-28T02:26:30.494Z,11.00
2018-06-28T02:27:33.297Z,12.00
2018-06-28T02:28:36.432Z,10.00
2018-06-28T02:29:39.224Z,8.50
2018-06-28T02:30:43.113Z,9.50
2018-06-28T02:31:45.863Z,10.00
2018-06-28T02:32:48.707Z,10.00
2018-06-28T02:33:51.504Z,9.00
2018-06-28T02:34:54.752Z,8.75
2018-06-28T02:35:57.556Z,8.50
2018-06-28T02:37:00.364Z,8.75
2018-06-28T02:38:03.151Z,6.75
2018-06-28T02:39:05.942Z,9.00
2018-06-28T02:40:08.775Z,8.25
2018-06-28T02:41:11.918Z,7.75
2018-06-28T02:42:14.726Z,8.00
2018-06-28T02:43:17.472Z,9.00
2018-06-28T02:44:20.248Z,10.50
2018-06-28T02:45:23.042Z,8.50
2018-06-28T02:46:26.538Z,10.00
2018-06-28T02:47:29.890Z,9.00
2018-06-28T02:48:32.695Z,11.00
2018-06-28T02:49:35.503Z,9.00
2018-06-28T02:50:38.310Z,7.25
2018-06-28T02:51:41.161Z,9.00
2018-06-28T02:52:43.954Z,9.25
2018-06-28T02:53:46.737Z,9.50
2018-06-28T02:54:49.787Z,11.25
2018-06-28T02:55:52.573Z,11.00
2018-06-28T02:56:55.361Z,12.00
2018-06-28T02:57:58.326Z,11.25
2018-06-28T02:59:01.590Z,14.00
2018-06-28T03:00:04.355Z,13.00
2018-06-28T03:01:07.159Z,12.00
2018-06-28T03:02:09.939Z,12.50
2018-06-28T03:03:12.745Z,14.00
2018-06-28T03:04:15.562Z,11.00
2018-06-28T03:05:18.826Z,11.50
2018-06-28T03:06:22.305Z,11.50
2018-06-28T03:08:33.838Z,12.25
2018-06-28T03:09:36.867Z,12.50
2018-06-28T03:10:39.671Z,13.00
2018-06-28T03:11:43.440Z,13.00
2018-06-28T03:12:46.557Z,14.75
2018-06-28T03:13:49.811Z,14.00
2018-06-28T03:14:52.641Z,13.75
2018-06-28T03:15:55.822Z,13.50
2018-06-28T03:16:58.977Z,14.00
2018-06-28T03:18:03.324Z,12.75
2018-06-28T03:19:06.685Z,11.50
2018-06-28T03:20:09.497Z,13.00
2018-06-28T03:21:12.376Z,13.00
2018-06-28T03:22:15.214Z,12.50
2018-06-28T03:23:17.997Z,16.00
2018-06-28T03:24:21.167Z,13.50
2018-06-28T03:25:23.944Z,13.50
2018-06-28T03:26:26.964Z,11.00
2018-06-28T03:27:29.858Z,13.25
2018-06-28T03:28:32.660Z,11.00
2018-06-28T03:29:35.488Z,12.50
2018-06-28T03:30:38.706Z,13.75
2018-06-28T03:31:41.721Z,14.50
2018-06-28T03:32:44.519Z,14.00
2018-06-28T03:33:47.516Z,11.00
2018-06-28T03:34:50.760Z,14.00
2018-06-28T03:35:53.637Z,10.00
2018-06-28T03:36:57.975Z,11.50
2018-06-28T03:38:00.901Z,10.25
2018-06-28T03:39:03.983Z,11.50
2018-06-28T03:40:06.803Z,13.00
2018-06-28T03:41:09.653Z,11.00
2018-06-28T03:42:12.469Z,12.00
2018-06-28T03:43:15.241Z,11.50
2018-06-28T03:44:18.427Z,14.25
2018-06-28T03:45:21.488Z,13.00
2018-06-28T03:46:24.285Z,13.75
2018-06-28T03:47:28.400Z,12.50
2018-06-28T03:48:31.735Z,12.50
2018-06-28T03:49:34.992Z,12.50
2018-06-28T03:50:37.791Z,12.00
2018-06-28T03:51:41.187Z,13.00
2018-06-28T03:52:47.806Z,12.25
2018-06-28T03:53:51.438Z,13.00
2018-06-28T03:54:54.596Z,11.00
2018-06-28T03:55:57.391Z,11.00
2018-06-28T03:57:00.271Z,12.75
2018-06-28T03:58:04.282Z,14.00
2018-06-28T03:59:07.075Z,13.25
2018-06-28T04:00:09.870Z,13.00
2018-06-28T04:01:13.228Z,13.25
2018-06-28T04:02:16.067Z,17.00
2018-06-28T04:03:18.956Z,15.75
2018-06-28T04:04:22.247Z,15.75
2018-06-28T04:05:25.038Z,14.75
2018-06-28T04:06:27.887Z,16.50
2018-06-28T04:07:31.057Z,15.75
2018-06-28T04:08:34.274Z,14.25
2018-06-28T04:09:37.407Z,17.00
2018-06-28T04:10:41.069Z,15.50
2018-06-28T04:11:44.086Z,14.00
2018-06-28T04:12:47.465Z,14.00
2018-06-28T04:13:50.273Z,15.00
2018-06-28T04:14:53.210Z,15.00
2018-06-28T04:15:56.053Z,14.25
2018-06-28T04:16:59.284Z,15.75
2018-06-28T04:18:02.357Z,15.00
2018-06-28T04:19:06.070Z,14.50
2018-06-28T04:20:08.987Z,13.50
2018-06-28T04:21:12.080Z,16.00
2018-06-28T04:22:19.390Z,13.50
2018-06-28T04:23:22.721Z,13.25
2018-06-28T04:24:26.238Z,13.50
2018-06-28T04:25:29.903Z,13.75
2018-06-28T04:26:32.987Z,14.75
2018-06-28T04:27:36.104Z,14.50
2018-06-28T04:28:39.276Z,13.75
2018-06-28T04:29:42.957Z,16.00
2018-06-28T04:30:46.179Z,13.75
2018-06-28T04:31:49.329Z,16.25
2018-06-28T04:32:52.328Z,16.50
2018-06-28T04:33:55.124Z,16.50
2018-06-28T04:34:57.931Z,16.75
2018-06-28T04:36:02.111Z,20.00
2018-06-28T04:37:05.607Z,17.00
2018-06-28T04:38:08.691Z,16.00
2018-06-28T04:39:13.335Z,15.75
2018-06-28T04:40:16.535Z,15.75
2018-06-28T04:41:19.568Z,15.75
2018-06-28T04:42:22.555Z,14.25
2018-06-28T04:43:26.168Z,13.25
2018-06-28T04:44:29.296Z,15.75
2018-06-28T04:45:32.493Z,16.50
2018-06-28T04:46:35.691Z,15.00
2018-06-28T04:47:38.825Z,17.00
2018-06-28T04:48:41.778Z,20.00
2018-06-28T04:49:45.824Z,20.25
2018-06-28T04:50:48.716Z,18.00
2018-06-28T04:51:51.756Z,18.00
2018-06-28T04:52:54.818Z,19.25
2018-06-28T04:53:57.609Z,19.75
2018-06-28T04:55:00.720Z,21.00
2018-06-28T04:56:05.392Z,17.75
2018-06-28T04:57:08.217Z,18.00
2018-06-28T04:58:11.517Z,20.25
2018-06-28T04:59:14.346Z,17.25
2018-06-28T05:00:17.133Z,15.00
2018-06-28T05:01:21.048Z,18.00
2018-06-28T05:02:24.297Z,17.25
2018-06-28T05:03:27.097Z,17.50
2018-06-28T05:04:29.934Z,17.75
2018-06-28T05:05:33.689Z,18.00
2018-06-28T05:06:36.498Z,18.25
2018-06-28T05:07:39.373Z,17.00
2018-06-28T05:08:42.610Z,14.75
2018-06-28T05:09:45.393Z,16.75
2018-06-28T05:10:48.235Z,17.00
2018-06-28T05:11:51.048Z,16.75
2018-06-28T05:12:53.906Z,18.00
2018-06-28T05:13:56.719Z,17.25
2018-06-28T05:14:59.549Z,15.00
2018-06-28T05:16:02.351Z,14.75
2018-06-28T05:17:06.393Z,13.75
2018-06-28T05:18:11.227Z,14.00
2018-06-28T05:19:14.050Z,14.25
2018-06-28T05:20:19.272Z,16.25
2018-06-28T05:21:22.132Z,14.25
2018-06-28T05:22:25.978Z,16.25
2018-06-28T05:23:28.855Z,15.00
2018-06-28T05:24:31.655Z,20.25
2018-06-28T05:25:34.468Z,18.75
2018-06-28T05:26:37.750Z,18.50
2018-06-28T05:27:40.562Z,18.75
2018-06-28T05:28:43.415Z,16.00
2018-06-28T05:29:46.443Z,19.00
2018-06-28T05:30:49.258Z,17.50
2018-06-28T05:31:52.068Z,16.75
2018-06-28T05:32:55.473Z,17.50
2018-06-28T05:33:58.542Z,16.75
2018-06-28T05:35:01.372Z,16.75
2018-06-28T05:36:04.207Z,15.50
2018-06-28T05:37:07.088Z,16.00
2018-06-28T05:38:09.903Z,19.00
2018-06-28T05:39:13.146Z,16.00
2018-06-28T05:40:15.932Z,18.75
2018-06-28T05:41:18.778Z,18.75
2018-06-28T05:42:22.223Z,20.25
2018-06-28T05:43:25.022Z,18.00
2018-06-28T05:44:28.302Z,18.75
2018-06-28T05:45:31.651Z,19.75
2018-06-28T05:46:38.136Z,18.00
2018-06-28T05:47:44.153Z,19.75
2018-06-28T05:48:47.898Z,17.75
2018-06-28T05:49:51.370Z,18.50
2018-06-28T05:50:58.788Z,21.75
2018-06-28T05:52:02.057Z,22.00
2018-06-28T05:53:04.939Z,21.50
2018-06-28T05:54:07.764Z,19.75
2018-06-28T05:55:11.406Z,20.25
2018-06-28T05:56:14.218Z,20.75
2018-06-28T05:57:17.641Z,19.25
2018-06-28T05:58:20.952Z,19.75
2018-06-28T05:59:23.792Z,19.75
2018-06-28T06:00:26.584Z,19.00
2018-06-28T06:01:29.403Z,17.00
2018-06-28T06:02:33.289Z,19.75
2018-06-28T06:03:36.130Z,17.75
2018-06-28T06:04:39.424Z,19.75
2018-06-28T06:05:42.227Z,19.00
2018-06-28T06:06:45.016Z,19.75
2018-06-28T06:07:48.403Z,16.00
2018-06-28T06:08:52.218Z,19.50
2018-06-28T06:09:55.058Z,15.75
2018-06-28T06:10:58.164Z,16.75
2018-06-28T06:12:01.038Z,22.25
2018-06-28T06:13:03.851Z,16.25
2018-06-28T06:14:06.646Z,16.50
2018-06-28T06:15:09.458Z,15.75
2018-06-28T06:16:12.292Z,15.50
2018-06-28T06:17:15.401Z,18.75
2018-06-28T06:18:18.211Z,17.75
2018-06-28T06:19:21.035Z,19.00
2018-06-28T06:20:24.584Z,16.75
2018-06-28T06:21:27.404Z,18.75
2018-06-28T06:22:30.215Z,19.00
2018-06-28T06:23:33.569Z,20.00
2018-06-28T06:24:36.802Z,17.50
2018-06-28T06:25:42.620Z,19.25
2018-06-28T06:26:45.421Z,17.50
2018-06-28T06:27:48.231Z,17.00
2018-06-28T06:28:51.048Z,20.00
2018-06-28T06:29:54.189Z,18.50
2018-06-28T06:30:56.978Z,19.25
2018-06-28T06:31:59.749Z,19.25
2018-06-28T06:33:03.282Z,18.50
2018-06-28T19:34:03.201Z,9.00
2018-06-28T21:47:58.486Z,8.25
2018-06-28T21:49:06.603Z,9.75
2018-06-28T21:50:25.417Z,9.00
2018-06-28T21:54:16.601Z,8.00
2018-06-28T21:55:20.964Z,8.00
2018-06-28T21:57:43.173Z,9.75
2018-06-28T22:03:54.502Z,8.00
2018-06-28T22:04:58.786Z,9.00
2018-06-28T22:06:15.687Z,9.75
2018-06-28T22:07:29.164Z,9.50
2018-06-28T22:13:20.033Z,8.50
2018-06-28T22:14:22.908Z,10.00
2018-06-28T22:15:28.756Z,12.00
2018-06-28T22:16:32.387Z,11.00
2018-06-28T22:17:36.367Z,12.50
2018-06-28T22:18:39.182Z,11.00
2018-06-28T22:19:55.361Z,9.50
2018-06-28T22:22:26.258Z,11.75
2018-06-28T22:23:38.457Z,10.75
2018-06-28T22:29:24.448Z,10.00
